Terminal Aerodrome Forecast
Issued by NWS

Home | Current Version | Previous Version | Text Only | Print | Product List | Glossary On
Versions: 1 2 3 4 5 6 7 8 9 10 11 12 13 14 15 16 17 18 19 20 21 22
000
FTUS46 KSTO 260800 AAA
TAFSCK
TAF AMD
KSCK 260842Z 2609/2706 12004KT 5SM BR BKN250
     FM261000 00000KT 1 1/2SM BR SCT004 BKN250
      TEMPO 2610/2613 1/4SM FG OVC001
     FM261300 12003KT 1/4SM FG VV001
     FM261800 00000KT 1/2SM FG OVC003
     FM261900 00000KT 2SM BR OVC004
     FM262300 VRB03KT 4SM HZ OVC150=

USA.gov is the U.S. government's official web portal to all federal, state and local government web resources and services.